sensor_id;sensor_type;location;lat;lon;timestamp;P1;durP1;ratioP1;P2;durP2;ratioP2
60851;SDS011;48553;50.766;2.900;2022-11-23T00:00:23;3.28;;;1.50;;
60851;SDS011;48553;50.766;2.900;2022-11-23T00:03:24;4.53;;;1.50;;
60851;SDS011;48553;50.766;2.900;2022-11-23T00:06:24;5.95;;;1.35;;
60851;SDS011;48553;50.766;2.900;2022-11-23T00:09:25;5.82;;;1.60;;
60851;SDS011;48553;50.766;2.900;2022-11-23T00:12:25;4.95;;;1.52;;
60851;SDS011;48553;50.766;2.900;2022-11-23T00:15:25;4.90;;;1.55;;
60851;SDS011;48553;50.766;2.900;2022-11-23T00:18:26;6.00;;;1.55;;
60851;SDS011;48553;50.766;2.900;2022-11-23T00:21:27;5.57;;;1.65;;
60851;SDS011;48553;50.766;2.900;2022-11-23T00:24:29;5.57;;;1.65;;
60851;SDS011;48553;50.766;2.900;2022-11-23T00:27:30;6.75;;;1.60;;
60851;SDS011;48553;50.766;2.900;2022-11-23T00:30:30;9.35;;;1.85;;
60851;SDS011;48553;50.766;2.900;2022-11-23T00:33:31;5.47;;;1.70;;
60851;SDS011;48553;50.766;2.900;2022-11-23T00:36:31;6.40;;;1.70;;
60851;SDS011;48553;50.766;2.900;2022-11-23T00:39:32;6.30;;;1.70;;
60851;SDS011;48553;50.766;2.900;2022-11-23T00:42:32;6.50;;;1.85;;
60851;SDS011;48553;50.766;2.900;2022-11-23T00:45:32;5.82;;;1.70;;
60851;SDS011;48553;50.766;2.900;2022-11-23T00:48:33;7.50;;;2.00;;
60851;SDS011;48553;50.766;2.900;2022-11-23T00:51:35;4.88;;;1.60;;
60851;SDS011;48553;50.766;2.900;2022-11-23T00:54:36;4.68;;;1.60;;
60851;SDS011;48553;50.766;2.900;2022-11-23T00:57:36;7.03;;;1.83;;
60851;SDS011;48553;50.766;2.900;2022-11-23T01:00:37;4.43;;;1.70;;
60851;SDS011;48553;50.766;2.900;2022-11-23T01:03:38;5.07;;;1.67;;
60851;SDS011;48553;50.766;2.900;2022-11-23T01:06:40;6.68;;;2.00;;
60851;SDS011;48553;50.766;2.900;2022-11-23T01:09:41;8.07;;;1.60;;
60851;SDS011;48553;50.766;2.900;2022-11-23T01:12:41;5.82;;;1.60;;
60851;SDS011;48553;50.766;2.900;2022-11-23T01:15:47;5.57;;;1.63;;
60851;SDS011;48553;50.766;2.900;2022-11-23T01:18:52;9.43;;;1.45;;
60851;SDS011;48553;50.766;2.900;2022-11-23T01:21:54;6.78;;;1.85;;
60851;SDS011;48553;50.766;2.900;2022-11-23T01:24:54;7.15;;;1.70;;
60851;SDS011;48553;50.766;2.900;2022-11-23T01:27:55;5.00;;;1.60;;
60851;SDS011;48553;50.766;2.900;2022-11-23T01:31:01;7.68;;;1.80;;
60851;SDS011;48553;50.766;2.900;2022-11-23T01:34:22;7.93;;;1.65;;
60851;SDS011;48553;50.766;2.900;2022-11-23T01:37:22;7.45;;;1.75;;
60851;SDS011;48553;50.766;2.900;2022-11-23T01:40:22;9.13;;;1.85;;
60851;SDS011;48553;50.766;2.900;2022-11-23T01:43:23;6.35;;;1.70;;
60851;SDS011;48553;50.766;2.900;2022-11-23T01:46:23;6.30;;;1.60;;
60851;SDS011;48553;50.766;2.900;2022-11-23T01:49:24;8.55;;;2.00;;
60851;SDS011;48553;50.766;2.900;2022-11-23T01:52:28;5.18;;;1.88;;
60851;SDS011;48553;50.766;2.900;2022-11-23T01:55:30;10.82;;;1.92;;
60851;SDS011;48553;50.766;2.900;2022-11-23T01:58:31;8.25;;;1.63;;
60851;SDS011;48553;50.766;2.900;2022-11-23T02:01:35;8.10;;;1.63;;
60851;SDS011;48553;50.766;2.900;2022-11-23T02:04:38;9.75;;;1.60;;
60851;SDS011;48553;50.766;2.900;2022-11-23T02:07:41;10.63;;;1.70;;
60851;SDS011;48553;50.766;2.900;2022-11-23T02:10:41;8.95;;;1.67;;
60851;SDS011;48553;50.766;2.900;2022-11-23T02:13:43;9.25;;;1.83;;
60851;SDS011;48553;50.766;2.900;2022-11-23T02:16:45;12.27;;;1.67;;
60851;SDS011;48553;50.766;2.900;2022-11-23T02:26:33;7.00;;;1.60;;
60851;SDS011;48553;50.766;2.900;2022-11-23T02:29:35;5.72;;;1.65;;
60851;SDS011;48553;50.766;2.900;2022-11-23T02:32:35;8.10;;;1.83;;
60851;SDS011;48553;50.766;2.900;2022-11-23T02:35:47;8.35;;;1.70;;
60851;SDS011;48553;50.766;2.900;2022-11-23T02:38:52;10.70;;;1.93;;
60851;SDS011;48553;50.766;2.900;2022-11-23T02:41:54;9.45;;;1.90;;
60851;SDS011;48553;50.766;2.900;2022-11-23T02:44:57;10.45;;;1.52;;
60851;SDS011;48553;50.766;2.900;2022-11-23T02:48:16;10.95;;;1.67;;
60851;SDS011;48553;50.766;2.900;2022-11-23T02:51:17;8.52;;;1.42;;
60851;SDS011;48553;50.766;2.900;2022-11-23T02:54:18;9.25;;;1.48;;
60851;SDS011;48553;50.766;2.900;2022-11-23T02:57:18;10.50;;;1.70;;
60851;SDS011;48553;50.766;2.900;2022-11-23T03:00:18;10.57;;;1.60;;
60851;SDS011;48553;50.766;2.900;2022-11-23T03:03:19;11.70;;;1.80;;
60851;SDS011;48553;50.766;2.900;2022-11-23T03:06:20;9.68;;;1.48;;
60851;SDS011;48553;50.766;2.900;2022-11-23T03:09:20;12.50;;;1.60;;
60851;SDS011;48553;50.766;2.900;2022-11-23T03:12:21;9.05;;;1.65;;
60851;SDS011;48553;50.766;2.900;2022-11-23T03:15:22;8.20;;;1.52;;
60851;SDS011;48553;50.766;2.900;2022-11-23T03:18:24;9.43;;;1.55;;
60851;SDS011;48553;50.766;2.900;2022-11-23T03:21:25;11.00;;;1.52;;
60851;SDS011;48553;50.766;2.900;2022-11-23T03:24:25;9.68;;;1.42;;
60851;SDS011;48553;50.766;2.900;2022-11-23T03:27:26;6.70;;;1.30;;
60851;SDS011;48553;50.766;2.900;2022-11-23T03:30:26;8.43;;;1.40;;
60851;SDS011;48553;50.766;2.900;2022-11-23T03:33:26;9.43;;;1.60;;
60851;SDS011;48553;50.766;2.900;2022-11-23T03:36:27;8.70;;;1.40;;
60851;SDS011;48553;50.766;2.900;2022-11-23T03:39:27;5.75;;;1.13;;
60851;SDS011;48553;50.766;2.900;2022-11-23T03:42:28;7.50;;;1.25;;
60851;SDS011;48553;50.766;2.900;2022-11-23T03:45:28;12.52;;;1.40;;
60851;SDS011;48553;50.766;2.900;2022-11-23T03:48:29;9.18;;;1.45;;
60851;SDS011;48553;50.766;2.900;2022-11-23T03:51:29;14.38;;;1.95;;
60851;SDS011;48553;50.766;2.900;2022-11-23T03:54:29;7.05;;;1.52;;
60851;SDS011;48553;50.766;2.900;2022-11-23T03:57:30;9.65;;;1.38;;
60851;SDS011;48553;50.766;2.900;2022-11-23T04:00:30;10.25;;;1.60;;
60851;SDS011;48553;50.766;2.900;2022-11-23T04:03:31;9.45;;;1.55;;
60851;SDS011;48553;50.766;2.900;2022-11-23T04:06:32;9.18;;;1.60;;
60851;SDS011;48553;50.766;2.900;2022-11-23T04:09:32;10.27;;;1.67;;
60851;SDS011;48553;50.766;2.900;2022-11-23T04:12:33;9.32;;;1.58;;
60851;SDS011;48553;50.766;2.900;2022-11-23T04:15:33;5.07;;;1.20;;
60851;SDS011;48553;50.766;2.900;2022-11-23T04:18:34;15.65;;;1.98;;
60851;SDS011;48553;50.766;2.900;2022-11-23T04:21:34;8.73;;;1.35;;
60851;SDS011;48553;50.766;2.900;2022-11-23T04:24:34;9.38;;;1.75;;
60851;SDS011;48553;50.766;2.900;2022-11-23T04:27:35;12.00;;;1.67;;
60851;SDS011;48553;50.766;2.900;2022-11-23T04:30:35;10.35;;;1.77;;
60851;SDS011;48553;50.766;2.900;2022-11-23T04:33:36;7.40;;;1.88;;
60851;SDS011;48553;50.766;2.900;2022-11-23T04:36:36;8.95;;;1.75;;
60851;SDS011;48553;50.766;2.900;2022-11-23T04:39:37;7.28;;;1.58;;
60851;SDS011;48553;50.766;2.900;2022-11-23T04:42:37;12.80;;;1.85;;
60851;SDS011;48553;50.766;2.900;2022-11-23T04:45:38;6.82;;;1.35;;
60851;SDS011;48553;50.766;2.900;2022-11-23T04:48:39;11.73;;;1.75;;
60851;SDS011;48553;50.766;2.900;2022-11-23T04:51:40;7.38;;;1.60;;
60851;SDS011;48553;50.766;2.900;2022-11-23T04:54:41;7.00;;;1.48;;
60851;SDS011;48553;50.766;2.900;2022-11-23T04:57:41;9.05;;;1.73;;
60851;SDS011;48553;50.766;2.900;2022-11-23T05:00:42;6.45;;;1.50;;
60851;SDS011;48553;50.766;2.900;2022-11-23T05:03:42;9.38;;;1.50;;
60851;SDS011;48553;50.766;2.900;2022-11-23T05:06:43;8.25;;;1.75;;
60851;SDS011;48553;50.766;2.900;2022-11-23T05:09:44;8.10;;;1.30;;
60851;SDS011;48553;50.766;2.900;2022-11-23T05:12:45;9.68;;;1.42;;
60851;SDS011;48553;50.766;2.900;2022-11-23T05:15:45;9.63;;;1.42;;
60851;SDS011;48553;50.766;2.900;2022-11-23T05:18:46;10.13;;;1.58;;
60851;SDS011;48553;50.766;2.900;2022-11-23T05:21:46;9.05;;;1.52;;
60851;SDS011;48553;50.766;2.900;2022-11-23T05:24:46;11.13;;;1.40;;
60851;SDS011;48553;50.766;2.900;2022-11-23T05:27:47;9.48;;;1.63;;
60851;SDS011;48553;50.766;2.900;2022-11-23T05:30:47;9.80;;;1.63;;
60851;SDS011;48553;50.766;2.900;2022-11-23T05:33:47;9.95;;;1.70;;
60851;SDS011;48553;50.766;2.900;2022-11-23T05:36:48;9.05;;;1.70;;
60851;SDS011;48553;50.766;2.900;2022-11-23T05:39:48;9.25;;;1.98;;
60851;SDS011;48553;50.766;2.900;2022-11-23T05:42:52;10.10;;;1.70;;
60851;SDS011;48553;50.766;2.900;2022-11-23T05:45:57;12.45;;;2.03;;
60851;SDS011;48553;50.766;2.900;2022-11-23T05:48:58;10.40;;;1.90;;
60851;SDS011;48553;50.766;2.900;2022-11-23T05:51:58;8.75;;;1.83;;
60851;SDS011;48553;50.766;2.900;2022-11-23T05:54:58;10.15;;;1.70;;
60851;SDS011;48553;50.766;2.900;2022-11-23T05:57:59;11.70;;;1.88;;
60851;SDS011;48553;50.766;2.900;2022-11-23T06:01:00;12.20;;;1.67;;
60851;SDS011;48553;50.766;2.900;2022-11-23T06:04:01;9.13;;;1.77;;
60851;SDS011;48553;50.766;2.900;2022-11-23T06:07:01;11.90;;;1.80;;
60851;SDS011;48553;50.766;2.900;2022-11-23T06:10:02;6.07;;;1.60;;
60851;SDS011;48553;50.766;2.900;2022-11-23T06:13:04;12.50;;;2.13;;
60851;SDS011;48553;50.766;2.900;2022-11-23T06:16:04;9.98;;;2.00;;
60851;SDS011;48553;50.766;2.900;2022-11-23T06:19:05;10.80;;;1.80;;
60851;SDS011;48553;50.766;2.900;2022-11-23T06:22:05;12.02;;;2.30;;
60851;SDS011;48553;50.766;2.900;2022-11-23T06:25:06;14.82;;;2.20;;
60851;SDS011;48553;50.766;2.900;2022-11-23T06:28:06;10.07;;;2.13;;
60851;SDS011;48553;50.766;2.900;2022-11-23T06:31:07;7.88;;;2.05;;
60851;SDS011;48553;50.766;2.900;2022-11-23T06:34:08;9.50;;;2.58;;
60851;SDS011;48553;50.766;2.900;2022-11-23T06:37:09;11.27;;;2.55;;
60851;SDS011;48553;50.766;2.900;2022-11-23T06:40:10;8.77;;;2.38;;
60851;SDS011;48553;50.766;2.900;2022-11-23T06:43:11;13.68;;;2.53;;
60851;SDS011;48553;50.766;2.900;2022-11-23T06:46:11;11.13;;;2.58;;
60851;SDS011;48553;50.766;2.900;2022-11-23T06:49:12;12.23;;;2.70;;
60851;SDS011;48553;50.766;2.900;2022-11-23T06:52:12;12.48;;;3.03;;
60851;SDS011;48553;50.766;2.900;2022-11-23T06:55:12;13.32;;;3.03;;
60851;SDS011;48553;50.766;2.900;2022-11-23T06:58:13;10.25;;;3.10;;
60851;SDS011;48553;50.766;2.900;2022-11-23T07:01:13;12.68;;;3.45;;
60851;SDS011;48553;50.766;2.900;2022-11-23T07:04:14;14.07;;;3.55;;
60851;SDS011;48553;50.766;2.900;2022-11-23T07:07:14;15.43;;;3.90;;
60851;SDS011;48553;50.766;2.900;2022-11-23T07:10:14;10.50;;;3.85;;
60851;SDS011;48553;50.766;2.900;2022-11-23T07:13:15;17.25;;;4.50;;
60851;SDS011;48553;50.766;2.900;2022-11-23T07:16:16;11.60;;;4.32;;
60851;SDS011;48553;50.766;2.900;2022-11-23T07:19:16;16.17;;;4.57;;
60851;SDS011;48553;50.766;2.900;2022-11-23T07:22:16;14.80;;;5.18;;
60851;SDS011;48553;50.766;2.900;2022-11-23T07:25:17;14.60;;;5.25;;
60851;SDS011;48553;50.766;2.900;2022-11-23T07:28:18;18.58;;;5.50;;
60851;SDS011;48553;50.766;2.900;2022-11-23T07:31:18;13.48;;;6.05;;
60851;SDS011;48553;50.766;2.900;2022-11-23T07:34:19;15.05;;;6.43;;
60851;SDS011;48553;50.766;2.900;2022-11-23T07:37:19;14.90;;;5.78;;
60851;SDS011;48553;50.766;2.900;2022-11-23T07:40:21;16.00;;;6.35;;
60851;SDS011;48553;50.766;2.900;2022-11-23T07:43:21;14.93;;;5.80;;
60851;SDS011;48553;50.766;2.900;2022-11-23T07:46:21;14.95;;;6.15;;
60851;SDS011;48553;50.766;2.900;2022-11-23T07:49:22;19.25;;;5.78;;
60851;SDS011;48553;50.766;2.900;2022-11-23T07:52:22;16.10;;;6.10;;
60851;SDS011;48553;50.766;2.900;2022-11-23T07:55:23;12.45;;;5.60;;
60851;SDS011;48553;50.766;2.900;2022-11-23T07:58:23;14.30;;;5.03;;
60851;SDS011;48553;50.766;2.900;2022-11-23T08:01:24;15.68;;;5.47;;
60851;SDS011;48553;50.766;2.900;2022-11-23T08:04:25;12.10;;;4.80;;
60851;SDS011;48553;50.766;2.900;2022-11-23T08:07:26;16.02;;;5.10;;
60851;SDS011;48553;50.766;2.900;2022-11-23T08:10:29;12.40;;;5.18;;
60851;SDS011;48553;50.766;2.900;2022-11-23T08:13:30;18.73;;;4.63;;
60851;SDS011;48553;50.766;2.900;2022-11-23T08:16:33;12.52;;;5.10;;
60851;SDS011;48553;50.766;2.900;2022-11-23T08:19:33;17.30;;;5.15;;
60851;SDS011;48553;50.766;2.900;2022-11-23T08:22:34;13.60;;;4.78;;
60851;SDS011;48553;50.766;2.900;2022-11-23T08:25:34;14.88;;;4.65;;
60851;SDS011;48553;50.766;2.900;2022-11-23T08:28:35;15.70;;;4.82;;
60851;SDS011;48553;50.766;2.900;2022-11-23T08:31:37;14.07;;;4.70;;
60851;SDS011;48553;50.766;2.900;2022-11-23T08:34:37;10.70;;;4.20;;
60851;SDS011;48553;50.766;2.900;2022-11-23T08:37:38;13.02;;;4.43;;
60851;SDS011;48553;50.766;2.900;2022-11-23T08:40:38;14.77;;;4.25;;
60851;SDS011;48553;50.766;2.900;2022-11-23T08:43:39;15.25;;;4.30;;
60851;SDS011;48553;50.766;2.900;2022-11-23T08:46:39;11.45;;;3.92;;
60851;SDS011;48553;50.766;2.900;2022-11-23T08:49:40;9.82;;;3.35;;
60851;SDS011;48553;50.766;2.900;2022-11-23T08:52:40;11.77;;;4.20;;
60851;SDS011;48553;50.766;2.900;2022-11-23T08:55:40;15.25;;;3.78;;
60851;SDS011;48553;50.766;2.900;2022-11-23T08:58:41;10.98;;;3.47;;
60851;SDS011;48553;50.766;2.900;2022-11-23T09:01:42;15.15;;;3.63;;
60851;SDS011;48553;50.766;2.900;2022-11-23T09:04:43;14.82;;;3.65;;
60851;SDS011;48553;50.766;2.900;2022-11-23T09:07:43;11.50;;;3.63;;
60851;SDS011;48553;50.766;2.900;2022-11-23T09:10:43;14.73;;;3.65;;
60851;SDS011;48553;50.766;2.900;2022-11-23T09:13:44;13.15;;;3.67;;
60851;SDS011;48553;50.766;2.900;2022-11-23T09:16:44;9.23;;;3.63;;
60851;SDS011;48553;50.766;2.900;2022-11-23T09:19:45;13.13;;;3.88;;
60851;SDS011;48553;50.766;2.900;2022-11-23T09:22:52;10.55;;;3.55;;
60851;SDS011;48553;50.766;2.900;2022-11-23T09:25:56;12.52;;;3.15;;
60851;SDS011;48553;50.766;2.900;2022-11-23T09:28:57;11.43;;;3.25;;
60851;SDS011;48553;50.766;2.900;2022-11-23T09:31:58;10.93;;;3.60;;
60851;SDS011;48553;50.766;2.900;2022-11-23T09:34:58;11.05;;;3.60;;
60851;SDS011;48553;50.766;2.900;2022-11-23T09:37:58;9.63;;;3.53;;
60851;SDS011;48553;50.766;2.900;2022-11-23T09:51:00;10.52;;;3.35;;
60851;SDS011;48553;50.766;2.900;2022-11-23T09:57:31;10.45;;;2.72;;
60851;SDS011;48553;50.766;2.900;2022-11-23T10:00:37;9.02;;;2.70;;
60851;SDS011;48553;50.766;2.900;2022-11-23T10:03:45;10.85;;;2.50;;
60851;SDS011;48553;50.766;2.900;2022-11-23T10:06:48;9.52;;;2.55;;
60851;SDS011;48553;50.766;2.900;2022-11-23T10:13:17;7.70;;;2.50;;
60851;SDS011;48553;50.766;2.900;2022-11-23T10:22:56;8.80;;;2.40;;
60851;SDS011;48553;50.766;2.900;2022-11-23T10:25:58;7.60;;;2.55;;
60851;SDS011;48553;50.766;2.900;2022-11-23T10:29:10;8.45;;;2.15;;
60851;SDS011;48553;50.766;2.900;2022-11-23T10:35:21;8.07;;;2.40;;
60851;SDS011;48553;50.766;2.900;2022-11-23T10:38:31;7.15;;;2.20;;
60851;SDS011;48553;50.766;2.900;2022-11-23T10:41:31;6.18;;;2.25;;
60851;SDS011;48553;50.766;2.900;2022-11-23T10:44:35;6.97;;;2.28;;
60851;SDS011;48553;50.766;2.900;2022-11-23T10:47:40;7.40;;;2.17;;
60851;SDS011;48553;50.766;2.900;2022-11-23T10:50:48;9.05;;;2.00;;
60851;SDS011;48553;50.766;2.900;2022-11-23T10:53:52;7.55;;;2.25;;
60851;SDS011;48553;50.766;2.900;2022-11-23T10:56:57;5.80;;;2.10;;
60851;SDS011;48553;50.766;2.900;2022-11-23T11:03:02;7.15;;;2.25;;
60851;SDS011;48553;50.766;2.900;2022-11-23T11:06:27;3.92;;;2.05;;
60851;SDS011;48553;50.766;2.900;2022-11-23T11:09:29;6.78;;;2.60;;
60851;SDS011;48553;50.766;2.900;2022-11-23T11:12:32;7.38;;;2.35;;
60851;SDS011;48553;50.766;2.900;2022-11-23T11:15:33;5.68;;;2.28;;
60851;SDS011;48553;50.766;2.900;2022-11-23T11:18:35;5.40;;;2.33;;
60851;SDS011;48553;50.766;2.900;2022-11-23T11:21:40;7.50;;;2.70;;
60851;SDS011;48553;50.766;2.900;2022-11-23T11:24:44;6.00;;;2.30;;
60851;SDS011;48553;50.766;2.900;2022-11-23T11:27:49;6.57;;;2.30;;
60851;SDS011;48553;50.766;2.900;2022-11-23T11:40:47;6.30;;;1.95;;
60851;SDS011;48553;50.766;2.900;2022-11-23T11:44:06;3.83;;;1.60;;
60851;SDS011;48553;50.766;2.900;2022-11-23T11:47:36;4.30;;;1.80;;
60851;SDS011;48553;50.766;2.900;2022-11-23T11:50:42;4.82;;;1.52;;
60851;SDS011;48553;50.766;2.900;2022-11-23T11:54:12;3.10;;;1.52;;
60851;SDS011;48553;50.766;2.900;2022-11-23T11:57:23;4.75;;;1.58;;
60851;SDS011;48553;50.766;2.900;2022-11-23T12:00:32;5.07;;;1.98;;
60851;SDS011;48553;50.766;2.900;2022-11-23T12:03:42;3.78;;;1.70;;
60851;SDS011;48553;50.766;2.900;2022-11-23T12:10:14;5.85;;;2.50;;
60851;SDS011;48553;50.766;2.900;2022-11-23T12:13:23;4.65;;;2.47;;
60851;SDS011;48553;50.766;2.900;2022-11-23T12:19:53;8.00;;;2.45;;
60851;SDS011;48553;50.766;2.900;2022-11-23T12:26:31;5.15;;;1.90;;
60851;SDS011;48553;50.766;2.900;2022-11-23T12:43:03;2.00;;;1.27;;
60851;SDS011;48553;50.766;2.900;2022-11-23T12:49:43;3.38;;;1.35;;
60851;SDS011;48553;50.766;2.900;2022-11-23T12:59:42;3.10;;;1.40;;
60851;SDS011;48553;50.766;2.900;2022-11-23T13:19:26;3.20;;;1.30;;
60851;SDS011;48553;50.766;2.900;2022-11-23T13:22:32;2.15;;;1.40;;
60851;SDS011;48553;50.766;2.900;2022-11-23T13:25:34;2.38;;;1.30;;
60851;SDS011;48553;50.766;2.900;2022-11-23T13:28:34;3.58;;;1.30;;
60851;SDS011;48553;50.766;2.900;2022-11-23T13:31:34;3.67;;;1.30;;
60851;SDS011;48553;50.766;2.900;2022-11-23T13:34:42;2.30;;;1.27;;
60851;SDS011;48553;50.766;2.900;2022-11-23T13:40:56;3.33;;;1.50;;
60851;SDS011;48553;50.766;2.900;2022-11-23T13:43:57;2.75;;;1.00;;
60851;SDS011;48553;50.766;2.900;2022-11-23T13:50:17;2.35;;;1.20;;
60851;SDS011;48553;50.766;2.900;2022-11-23T13:53:22;3.15;;;1.38;;
60851;SDS011;48553;50.766;2.900;2022-11-23T13:56:34;3.05;;;1.20;;
60851;SDS011;48553;50.766;2.900;2022-11-23T13:59:40;4.00;;;1.40;;
60851;SDS011;48553;50.766;2.900;2022-11-23T14:02:40;3.55;;;1.17;;
60851;SDS011;48553;50.766;2.900;2022-11-23T14:08:47;2.60;;;1.38;;
60851;SDS011;48553;50.766;2.900;2022-11-23T14:15:09;2.97;;;1.23;;
60851;SDS011;48553;50.766;2.900;2022-11-23T14:31:10;4.55;;;1.48;;
60851;SDS011;48553;50.766;2.900;2022-11-23T14:41:27;3.30;;;1.40;;
60851;SDS011;48553;50.766;2.900;2022-11-23T14:44:33;5.85;;;1.70;;
60851;SDS011;48553;50.766;2.900;2022-11-23T14:47:34;6.50;;;1.73;;
60851;SDS011;48553;50.766;2.900;2022-11-23T14:50:34;9.07;;;2.13;;
60851;SDS011;48553;50.766;2.900;2022-11-23T14:53:38;8.57;;;2.22;;
60851;SDS011;48553;50.766;2.900;2022-11-23T14:56:41;7.53;;;2.10;;
60851;SDS011;48553;50.766;2.900;2022-11-23T14:59:46;8.37;;;2.33;;
60851;SDS011;48553;50.766;2.900;2022-11-23T15:02:51;8.38;;;2.17;;
60851;SDS011;48553;50.766;2.900;2022-11-23T15:06:11;7.22;;;2.17;;
60851;SDS011;48553;50.766;2.900;2022-11-23T15:09:18;6.05;;;1.98;;
60851;SDS011;48553;50.766;2.900;2022-11-23T15:12:44;10.38;;;2.33;;
60851;SDS011;48553;50.766;2.900;2022-11-23T15:15:47;7.22;;;2.50;;
60851;SDS011;48553;50.766;2.900;2022-11-23T15:18:51;7.60;;;2.42;;
60851;SDS011;48553;50.766;2.900;2022-11-23T15:21:51;6.93;;;2.33;;
60851;SDS011;48553;50.766;2.900;2022-11-23T15:24:52;5.32;;;2.28;;
60851;SDS011;48553;50.766;2.900;2022-11-23T15:27:52;6.55;;;2.08;;
60851;SDS011;48553;50.766;2.900;2022-11-23T15:30:53;7.68;;;2.30;;
60851;SDS011;48553;50.766;2.900;2022-11-23T15:33:55;7.22;;;2.15;;
60851;SDS011;48553;50.766;2.900;2022-11-23T15:36:57;9.32;;;2.63;;
60851;SDS011;48553;50.766;2.900;2022-11-23T15:39:58;10.50;;;2.92;;
60851;SDS011;48553;50.766;2.900;2022-11-23T15:42:59;13.63;;;3.50;;
60851;SDS011;48553;50.766;2.900;2022-11-23T15:46:00;13.95;;;3.70;;
60851;SDS011;48553;50.766;2.900;2022-11-23T15:49:03;11.70;;;3.55;;
60851;SDS011;48553;50.766;2.900;2022-11-23T15:52:10;13.20;;;3.88;;
60851;SDS011;48553;50.766;2.900;2022-11-23T15:55:12;14.88;;;4.10;;
60851;SDS011;48553;50.766;2.900;2022-11-23T15:58:17;15.80;;;4.30;;
60851;SDS011;48553;50.766;2.900;2022-11-23T16:01:19;18.23;;;4.25;;
60851;SDS011;48553;50.766;2.900;2022-11-23T16:04:31;9.85;;;3.53;;
60851;SDS011;48553;50.766;2.900;2022-11-23T16:07:47;12.30;;;3.58;;
60851;SDS011;48553;50.766;2.900;2022-11-23T16:10:58;12.30;;;3.03;;
60851;SDS011;48553;50.766;2.900;2022-11-23T16:17:25;16.55;;;3.75;;
60851;SDS011;48553;50.766;2.900;2022-11-23T16:20:27;13.73;;;3.50;;
60851;SDS011;48553;50.766;2.900;2022-11-23T16:23:49;13.45;;;3.53;;
60851;SDS011;48553;50.766;2.900;2022-11-23T16:26:50;15.60;;;3.63;;
60851;SDS011;48553;50.766;2.900;2022-11-23T16:29:52;17.33;;;3.50;;
60851;SDS011;48553;50.766;2.900;2022-11-23T16:32:53;12.05;;;3.92;;
60851;SDS011;48553;50.766;2.900;2022-11-23T16:35:53;12.45;;;3.80;;
60851;SDS011;48553;50.766;2.900;2022-11-23T16:38:54;11.18;;;3.53;;
60851;SDS011;48553;50.766;2.900;2022-11-23T16:41:54;17.02;;;4.32;;
60851;SDS011;48553;50.766;2.900;2022-11-23T16:44:55;16.13;;;4.13;;
60851;SDS011;48553;50.766;2.900;2022-11-23T16:47:59;11.75;;;3.78;;
60851;SDS011;48553;50.766;2.900;2022-11-23T16:51:00;13.43;;;3.47;;
60851;SDS011;48553;50.766;2.900;2022-11-23T16:54:01;9.55;;;3.28;;
60851;SDS011;48553;50.766;2.900;2022-11-23T16:57:01;12.50;;;3.33;;
60851;SDS011;48553;50.766;2.900;2022-11-23T17:00:04;15.90;;;3.47;;
60851;SDS011;48553;50.766;2.900;2022-11-23T17:03:13;12.68;;;3.58;;
60851;SDS011;48553;50.766;2.900;2022-11-23T17:06:14;15.35;;;3.70;;
60851;SDS011;48553;50.766;2.900;2022-11-23T17:09:16;14.15;;;3.58;;
60851;SDS011;48553;50.766;2.900;2022-11-23T17:12:17;19.95;;;4.05;;
60851;SDS011;48553;50.766;2.900;2022-11-23T17:15:20;19.08;;;4.55;;
60851;SDS011;48553;50.766;2.900;2022-11-23T17:18:21;16.67;;;4.47;;
60851;SDS011;48553;50.766;2.900;2022-11-23T17:21:21;17.08;;;4.03;;
60851;SDS011;48553;50.766;2.900;2022-11-23T17:24:22;23.85;;;4.90;;
60851;SDS011;48553;50.766;2.900;2022-11-23T17:27:22;14.60;;;4.72;;
60851;SDS011;48553;50.766;2.900;2022-11-23T17:30:24;14.80;;;3.40;;
60851;SDS011;48553;50.766;2.900;2022-11-23T17:33:26;19.13;;;3.53;;
60851;SDS011;48553;50.766;2.900;2022-11-23T17:36:27;15.77;;;3.25;;
60851;SDS011;48553;50.766;2.900;2022-11-23T17:39:29;15.52;;;3.47;;
60851;SDS011;48553;50.766;2.900;2022-11-23T17:42:30;20.70;;;3.35;;
60851;SDS011;48553;50.766;2.900;2022-11-23T17:45:30;10.52;;;3.22;;
60851;SDS011;48553;50.766;2.900;2022-11-23T17:48:31;15.77;;;3.63;;
60851;SDS011;48553;50.766;2.900;2022-11-23T17:51:33;15.48;;;3.65;;
60851;SDS011;48553;50.766;2.900;2022-11-23T17:54:33;17.27;;;3.42;;
60851;SDS011;48553;50.766;2.900;2022-11-23T17:57:33;15.25;;;3.22;;
60851;SDS011;48553;50.766;2.900;2022-11-23T18:00:34;14.63;;;3.10;;
60851;SDS011;48553;50.766;2.900;2022-11-23T18:03:36;13.50;;;3.10;;
60851;SDS011;48553;50.766;2.900;2022-11-23T18:06:36;20.67;;;3.50;;
60851;SDS011;48553;50.766;2.900;2022-11-23T18:09:37;12.30;;;3.42;;
60851;SDS011;48553;50.766;2.900;2022-11-23T18:12:38;17.35;;;3.10;;
60851;SDS011;48553;50.766;2.900;2022-11-23T18:15:39;19.13;;;3.53;;
60851;SDS011;48553;50.766;2.900;2022-11-23T18:18:39;16.67;;;3.45;;
60851;SDS011;48553;50.766;2.900;2022-11-23T18:21:40;17.02;;;3.78;;
60851;SDS011;48553;50.766;2.900;2022-11-23T18:24:40;17.25;;;3.40;;
60851;SDS011;48553;50.766;2.900;2022-11-23T18:27:41;18.85;;;3.85;;
60851;SDS011;48553;50.766;2.900;2022-11-23T18:30:41;13.15;;;3.40;;
60851;SDS011;48553;50.766;2.900;2022-11-23T18:33:46;18.30;;;3.17;;
60851;SDS011;48553;50.766;2.900;2022-11-23T18:36:47;16.88;;;3.60;;
60851;SDS011;48553;50.766;2.900;2022-11-23T18:39:47;18.27;;;3.60;;
60851;SDS011;48553;50.766;2.900;2022-11-23T18:42:48;15.95;;;3.17;;
60851;SDS011;48553;50.766;2.900;2022-11-23T18:45:48;19.33;;;3.45;;
60851;SDS011;48553;50.766;2.900;2022-11-23T18:48:49;12.90;;;3.28;;
60851;SDS011;48553;50.766;2.900;2022-11-23T18:51:50;15.63;;;3.20;;
60851;SDS011;48553;50.766;2.900;2022-11-23T18:54:50;18.05;;;3.95;;
60851;SDS011;48553;50.766;2.900;2022-11-23T18:57:54;22.13;;;4.00;;
60851;SDS011;48553;50.766;2.900;2022-11-23T19:00:54;17.55;;;3.33;;
60851;SDS011;48553;50.766;2.900;2022-11-23T19:03:55;17.45;;;3.35;;
60851;SDS011;48553;50.766;2.900;2022-11-23T19:06:56;17.42;;;3.30;;
60851;SDS011;48553;50.766;2.900;2022-11-23T19:09:56;15.73;;;3.60;;
60851;SDS011;48553;50.766;2.900;2022-11-23T19:12:57;16.08;;;2.58;;
60851;SDS011;48553;50.766;2.900;2022-11-23T19:15:57;12.95;;;2.75;;
60851;SDS011;48553;50.766;2.900;2022-11-23T19:18:59;18.08;;;3.55;;
60851;SDS011;48553;50.766;2.900;2022-11-23T19:22:03;16.35;;;2.90;;
60851;SDS011;48553;50.766;2.900;2022-11-23T19:25:04;11.25;;;2.50;;
60851;SDS011;48553;50.766;2.900;2022-11-23T19:28:05;13.80;;;3.10;;
60851;SDS011;48553;50.766;2.900;2022-11-23T19:31:13;18.70;;;2.80;;
60851;SDS011;48553;50.766;2.900;2022-11-23T19:34:15;15.50;;;2.80;;
60851;SDS011;48553;50.766;2.900;2022-11-23T19:37:15;20.10;;;2.60;;
60851;SDS011;48553;50.766;2.900;2022-11-23T19:40:16;12.38;;;2.63;;
60851;SDS011;48553;50.766;2.900;2022-11-23T19:43:16;17.98;;;3.20;;
60851;SDS011;48553;50.766;2.900;2022-11-23T19:46:17;17.17;;;3.28;;
60851;SDS011;48553;50.766;2.900;2022-11-23T19:49:17;16.50;;;3.05;;
60851;SDS011;48553;50.766;2.900;2022-11-23T19:52:18;15.18;;;2.70;;
60851;SDS011;48553;50.766;2.900;2022-11-23T19:55:18;17.85;;;3.08;;
60851;SDS011;48553;50.766;2.900;2022-11-23T19:58:19;13.55;;;2.80;;
60851;SDS011;48553;50.766;2.900;2022-11-23T20:01:20;12.13;;;2.53;;
60851;SDS011;48553;50.766;2.900;2022-11-23T20:04:21;12.63;;;2.47;;
60851;SDS011;48553;50.766;2.900;2022-11-23T20:07:22;18.35;;;2.70;;
60851;SDS011;48553;50.766;2.900;2022-11-23T20:10:22;19.20;;;2.72;;
60851;SDS011;48553;50.766;2.900;2022-11-23T20:13:23;18.77;;;2.88;;
60851;SDS011;48553;50.766;2.900;2022-11-23T20:16:24;13.10;;;2.28;;
60851;SDS011;48553;50.766;2.900;2022-11-23T20:19:26;17.67;;;2.58;;
60851;SDS011;48553;50.766;2.900;2022-11-23T20:22:26;13.18;;;2.42;;